Main page
METAR-TAF:

METAR-TAF

Airports :

Cognac, France

Cognac – Châteaubernard Air Base

latitude: 45-40N, longitude: 000-19W, elevation: 30 m

Current weather observation

The report was made 44 minutes ago, at 03:00 UTC
Calm wind
Temperature 8°C
Humidity 93%
Pressure 1024 hPa
Visibility 10 km or more
no clouds below 1500 m and no cumulonimbus

METAR: LFBG 200300Z AUTO 00000KT CAVOK 08/07 Q1024

Time: 05:44 (03:44 UTC)

Forecast

The report was made 7 hours and 44 minutes ago, at 20:00 UTC
Forecast valid from 19 at 21 UTC to 20 at 21 UTC
Wind 2 kt from variable directions
Visibility 10 km or more
no clouds below 1500 m and no cumulonimbus
Temporary
from 20 at 04 UTC to 20 at 07 UTC
Visibility: 0500 m
patches of fog

TAF: LFBG 192000Z 1921/2021 VRB02KT CAVOK TEMPO 2004/2007 0500 BCFG

Weather observations and forecasts of more than 4000 airports (METAR and TAF reports).

The available stations are represented by yellow and red dots on the map.

Hover mouse over dot to see the name of the station.

Then click to see weather observations and forecasts.

To change the map : click on the green buttons with a black cross to zoom in, on the green button with a dash to zoom out, or on the green arrows for adjacent maps.


METAR-TAF: